Time;durP1;ratioP1;P1;durP2;ratioP2;P2;SDS_P1;SDS_P2;PMS_P1;PMS_P2;Temp;Humidity;BMP_temperature;BMP_pressure;BME280_temperature;BME280_humidity;BME280_pressure;Samples;Min_cycle;Max_cycle;Signal;HPM_P1;HPM_P2
2022/09/22 00:00:38;;;;;;;8.400001;6.749999;;;;;;;4.38;64.27539;95940.85;;;;
2022/09/22 00:01:38;;;;;;;6.849999;6.100001;;;;;;;4.25;65.43555;95930.42;;;;
2022/09/22 00:02:40;;;;;;;6.849999;6.100001;;;;;;;4.25;65.43555;95930.42;;;;
2022/09/22 00:03:40;;;;;;;6.849999;6.100001;;;;;;;4.25;65.43555;95930.42;;;;
2022/09/22 00:04:43;;;;;;;6.849999;6.100001;;;;;;;4.25;65.43555;95930.42;;;;
2022/09/22 00:05:43;;;;;;;6.849999;6.100001;;;;;;;4.25;65.43555;95930.42;;;;
2022/09/22 00:06:46;;;;;;;6.849999;6.100001;;;;;;;4.25;65.43555;95930.42;;;;
2022/09/22 00:07:48;;;;;;;6.849999;6.100001;;;;;;;4.25;65.43555;95930.42;;;;
2022/09/22 00:08:50;;;;;;;6.849999;6.100001;;;;;;;4.25;65.43555;95930.42;;;;
2022/09/22 00:09:52;;;;;;;6.849999;6.100001;;;;;;;4.25;65.43555;95930.42;;;;
2022/09/22 00:10:53;;;;;;;6.849999;6.100001;;;;;;;4.25;65.43555;95930.42;;;;
2022/09/22 00:12:03;;;;;;;7.05;6.1;;;;;;;4.14;66.08789;95940.75;;;;
2022/09/22 00:13:04;;;;;;;7.05;6.1;;;;;;;4.14;66.08789;95940.75;;;;
2022/09/22 00:14:05;;;;;;;7.05;6.1;;;;;;;4.14;66.08789;95940.75;;;;
2022/09/22 00:15:09;;;;;;;7.05;6.1;;;;;;;4.14;66.08789;95940.75;;;;
2022/09/22 00:16:10;;;;;;;7.05;6.1;;;;;;;4.14;66.08789;95940.75;;;;
2022/09/22 00:17:12;;;;;;;7.05;6.1;;;;;;;4.14;66.08789;95940.75;;;;
2022/09/22 00:18:12;;;;;;;7.05;6.1;;;;;;;4.14;66.08789;95940.75;;;;
2022/09/22 00:19:13;;;;;;;7.05;6.1;;;;;;;4.14;66.08789;95940.75;;;;
2022/09/22 00:20:16;;;;;;;7.05;6.1;;;;;;;4.14;66.08789;95940.75;;;;
2022/09/22 00:21:17;;;;;;;7.05;6.1;;;;;;;4.14;66.08789;95940.75;;;;
2022/09/22 00:22:20;;;;;;;7.05;6.1;;;;;;;4.14;66.08789;95940.75;;;;
2022/09/22 00:23:22;;;;;;;6.55;5.849999;;;;;;;3.94;66.90723;95939.36;;;;
2022/09/22 00:24:24;;;;;;;6.55;5.849999;;;;;;;3.94;66.90723;95939.36;;;;
2022/09/22 00:25:26;;;;;;;6.55;5.849999;;;;;;;3.94;66.90723;95939.36;;;;
2022/09/22 00:26:26;;;;;;;6.55;5.849999;;;;;;;3.94;66.90723;95939.36;;;;
2022/09/22 00:27:27;;;;;;;6.55;5.849999;;;;;;;3.94;66.90723;95939.36;;;;
2022/09/22 00:28:27;;;;;;;6.55;5.849999;;;;;;;3.94;66.90723;95939.36;;;;
2022/09/22 00:29:28;;;;;;;6.55;5.849999;;;;;;;3.94;66.90723;95939.36;;;;
2022/09/22 00:30:30;;;;;;;6.55;5.849999;;;;;;;3.94;66.90723;95939.36;;;;
2022/09/22 00:31:30;;;;;;;6.55;5.849999;;;;;;;3.94;66.90723;95939.36;;;;
2022/09/22 00:32:31;;;;;;;6.55;5.849999;;;;;;;3.94;66.90723;95939.36;;;;
2022/09/22 00:33:31;;;;;;;7.400001;5.949999;;;;;;;3.78;67.55176;95934.84;;;;
2022/09/22 00:34:32;;;;;;;7.400001;5.949999;;;;;;;3.78;67.55176;95934.84;;;;
2022/09/22 00:35:34;;;;;;;7.400001;5.949999;;;;;;;3.78;67.55176;95934.84;;;;
2022/09/22 00:36:35;;;;;;;7.400001;5.949999;;;;;;;3.78;67.55176;95934.84;;;;
2022/09/22 00:37:36;;;;;;;7.400001;5.949999;;;;;;;3.78;67.55176;95934.84;;;;
2022/09/22 00:38:36;;;;;;;7.400001;5.949999;;;;;;;3.78;67.55176;95934.84;;;;
2022/09/22 00:39:38;;;;;;;7.400001;5.949999;;;;;;;3.78;67.55176;95934.84;;;;
2022/09/22 00:40:38;;;;;;;7.400001;5.949999;;;;;;;3.78;67.55176;95934.84;;;;
2022/09/22 00:41:39;;;;;;;7.400001;5.949999;;;;;;;3.78;67.55176;95934.84;;;;
2022/09/22 00:42:45;;;;;;;7.400001;5.949999;;;;;;;3.78;67.55176;95934.84;;;;
2022/09/22 00:43:46;;;;;;;7.400001;5.949999;;;;;;;3.78;67.55176;95934.84;;;;
2022/09/22 00:44:49;;;;;;;6.55;5.950001;;;;;;;3.68;68.07813;95924.08;;;;
2022/09/22 00:45:49;;;;;;;6.55;5.950001;;;;;;;3.68;68.07813;95924.08;;;;
2022/09/22 00:46:53;;;;;;;6.55;5.950001;;;;;;;3.68;68.07813;95924.08;;;;
2022/09/22 00:47:59;;;;;;;6.55;5.950001;;;;;;;3.68;68.07813;95924.08;;;;
2022/09/22 00:49:00;;;;;;;6.55;5.950001;;;;;;;3.68;68.07813;95924.08;;;;
2022/09/22 00:50:04;;;;;;;6.55;5.950001;;;;;;;3.68;68.07813;95924.08;;;;
2022/09/22 00:51:11;;;;;;;6.55;5.950001;;;;;;;3.68;68.07813;95924.08;;;;
2022/09/22 00:52:14;;;;;;;6.55;5.950001;;;;;;;3.68;68.07813;95924.08;;;;
2022/09/22 00:53:18;;;;;;;6.55;5.950001;;;;;;;3.68;68.07813;95924.08;;;;
2022/09/22 00:54:21;;;;;;;6.55;5.950001;;;;;;;3.68;68.07813;95924.08;;;;
2022/09/22 00:55:22;;;;;;;6.55;5.950001;;;;;;;3.68;68.07813;95924.08;;;;
2022/09/22 00:56:28;;;;;;;6.55;5.950001;;;;;;;3.68;68.07813;95924.08;;;;
2022/09/22 00:57:33;;;;;;;6.55;5.950001;;;;;;;3.68;68.07813;95924.08;;;;
2022/09/22 00:58:37;;;;;;;6.55;5.950001;;;;;;;3.68;68.07813;95924.08;;;;
2022/09/22 00:59:42;;;;;;;6.55;5.950001;;;;;;;3.68;68.07813;95924.08;;;;
2022/09/22 01:00:44;;;;;;;6.55;5.950001;;;;;;;3.68;68.07813;95924.08;;;;
2022/09/22 01:01:45;;;;;;;6.55;5.950001;;;;;;;3.68;68.07813;95924.08;;;;
2022/09/22 01:02:46;;;;;;;6.55;5.950001;;;;;;;3.68;68.07813;95924.08;;;;
2022/09/22 01:03:50;;;;;;;6.55;5.950001;;;;;;;3.68;68.07813;95924.08;;;;
2022/09/22 01:04:51;;;;;;;6.55;5.950001;;;;;;;3.68;68.07813;95924.08;;;;
2022/09/22 01:05:52;;;;;;;6.649999;4.55;;;;;;;3.44;68.99316;95897.79;;;;
2022/09/22 01:06:56;;;;;;;6.649999;4.55;;;;;;;3.44;68.99316;95897.79;;;;
2022/09/22 01:07:58;;;;;;;6.649999;4.55;;;;;;;3.44;68.99316;95897.79;;;;
2022/09/22 01:08:59;;;;;;;6.649999;4.55;;;;;;;3.44;68.99316;95897.79;;;;
2022/09/22 01:10:01;;;;;;;6.649999;4.55;;;;;;;3.44;68.99316;95897.79;;;;
2022/09/22 01:11:02;;;;;;;6.649999;4.55;;;;;;;3.44;68.99316;95897.79;;;;
2022/09/22 01:12:02;;;;;;;6.649999;4.55;;;;;;;3.44;68.99316;95897.79;;;;
2022/09/22 01:13:04;;;;;;;6.649999;4.55;;;;;;;3.44;68.99316;95897.79;;;;
2022/09/22 01:14:17;;;;;;;6.649999;4.55;;;;;;;3.44;68.99316;95897.79;;;;
2022/09/22 01:15:30;;;;;;;6.649999;4.55;;;;;;;3.44;68.99316;95897.79;;;;
2022/09/22 01:16:38;;;;;;;7.149999;5.900001;;;;;;;3.38;68.66602;95886.66;;;;
2022/09/22 01:17:50;;;;;;;7.149999;5.900001;;;;;;;3.38;68.66602;95886.66;;;;
2022/09/22 01:19:08;;;;;;;7.149999;5.900001;;;;;;;3.38;68.66602;95886.66;;;;
2022/09/22 01:20:32;;;;;;;7.149999;5.900001;;;;;;;3.38;68.66602;95886.66;;;;
2022/09/22 01:21:55;;;;;;;7.149999;5.900001;;;;;;;3.38;68.66602;95886.66;;;;
2022/09/22 01:23:14;;;;;;;7.149999;5.900001;;;;;;;3.38;68.66602;95886.66;;;;
2022/09/22 01:24:38;;;;;;;7.149999;5.900001;;;;;;;3.38;68.66602;95886.66;;;;
2022/09/22 01:25:47;;;;;;;7.149999;5.900001;;;;;;;3.38;68.66602;95886.66;;;;
2022/09/22 01:27:25;;;;;;;6.8;5.8;;;;;;;3.31;69.06934;95876.89;;;;
2022/09/22 01:28:44;;;;;;;6.8;5.8;;;;;;;3.31;69.06934;95876.89;;;;
2022/09/22 01:30:05;;;;;;;6.8;5.8;;;;;;;3.31;69.06934;95876.89;;;;
2022/09/22 01:31:11;;;;;;;6.8;5.8;;;;;;;3.31;69.06934;95876.89;;;;
2022/09/22 01:32:18;;;;;;;6.8;5.8;;;;;;;3.31;69.06934;95876.89;;;;
2022/09/22 01:33:26;;;;;;;6.8;5.8;;;;;;;3.31;69.06934;95876.89;;;;
2022/09/22 01:34:40;;;;;;;6.8;5.8;;;;;;;3.31;69.06934;95876.89;;;;
2022/09/22 01:35:46;;;;;;;6.8;5.8;;;;;;;3.31;69.06934;95876.89;;;;
2022/09/22 01:37:03;;;;;;;6.8;5.8;;;;;;;3.31;69.06934;95876.89;;;;
2022/09/22 01:38:13;;;;;;;7.149999;6.05;;;;;;;3.25;69.47168;95876.2;;;;
2022/09/22 01:39:21;;;;;;;7.149999;6.05;;;;;;;3.25;69.47168;95876.2;;;;
2022/09/22 01:40:28;;;;;;;7.149999;6.05;;;;;;;3.25;69.47168;95876.2;;;;
2022/09/22 01:41:33;;;;;;;7.149999;6.05;;;;;;;3.25;69.47168;95876.2;;;;
2022/09/22 01:42:44;;;;;;;7.149999;6.05;;;;;;;3.25;69.47168;95876.2;;;;
2022/09/22 01:43:50;;;;;;;7.149999;6.05;;;;;;;3.25;69.47168;95876.2;;;;
2022/09/22 01:44:56;;;;;;;7.149999;6.05;;;;;;;3.25;69.47168;95876.2;;;;
2022/09/22 01:46:01;;;;;;;7.149999;6.05;;;;;;;3.25;69.47168;95876.2;;;;
2022/09/22 01:47:07;;;;;;;7.149999;6.05;;;;;;;3.25;69.47168;95876.2;;;;
2022/09/22 01:48:13;;;;;;;7.149999;6.05;;;;;;;3.25;69.47168;95876.2;;;;
2022/09/22 01:49:19;;;;;;;7.85;6.15;;;;;;;3.16;69.92188;95868.05;;;;
2022/09/22 01:50:21;;;;;;;7.85;6.15;;;;;;;3.16;69.92188;95868.05;;;;
2022/09/22 01:51:27;;;;;;;7.85;6.15;;;;;;;3.16;69.92188;95868.05;;;;
2022/09/22 01:52:32;;;;;;;7.85;6.15;;;;;;;3.16;69.92188;95868.05;;;;
2022/09/22 01:53:34;;;;;;;7.85;6.15;;;;;;;3.16;69.92188;95868.05;;;;
2022/09/22 01:54:39;;;;;;;7.85;6.15;;;;;;;3.16;69.92188;95868.05;;;;
2022/09/22 01:55:43;;;;;;;7.85;6.15;;;;;;;3.16;69.92188;95868.05;;;;
2022/09/22 01:56:47;;;;;;;7.85;6.15;;;;;;;3.16;69.92188;95868.05;;;;
2022/09/22 01:57:54;;;;;;;7.85;6.15;;;;;;;3.16;69.92188;95868.05;;;;
2022/09/22 01:58:59;;;;;;;7.85;6.15;;;;;;;3.16;69.92188;95868.05;;;;
2022/09/22 02:00:05;;;;;;;7.099999;5.849999;;;;;;;3.08;70.18555;95863.56;;;;
2022/09/22 02:01:08;;;;;;;7.099999;5.849999;;;;;;;3.08;70.18555;95863.56;;;;
2022/09/22 02:02:14;;;;;;;7.099999;5.849999;;;;;;;3.08;70.18555;95863.56;;;;
2022/09/22 02:03:23;;;;;;;7.099999;5.849999;;;;;;;3.08;70.18555;95863.56;;;;
2022/09/22 02:04:31;;;;;;;7.099999;5.849999;;;;;;;3.08;70.18555;95863.56;;;;
2022/09/22 02:05:37;;;;;;;7.099999;5.849999;;;;;;;3.08;70.18555;95863.56;;;;
2022/09/22 02:06:43;;;;;;;7.099999;5.849999;;;;;;;3.08;70.18555;95863.56;;;;
2022/09/22 02:07:52;;;;;;;7.099999;5.849999;;;;;;;3.08;70.18555;95863.56;;;;
2022/09/22 02:08:55;;;;;;;7.099999;5.849999;;;;;;;3.08;70.18555;95863.56;;;;
2022/09/22 02:10:01;;;;;;;8.25;6.149999;;;;;;;2.98;70.53711;95873.78;;;;
2022/09/22 02:11:08;;;;;;;8.25;6.149999;;;;;;;2.98;70.53711;95873.78;;;;
2022/09/22 02:12:11;;;;;;;8.25;6.149999;;;;;;;2.98;70.53711;95873.78;;;;
2022/09/22 02:13:12;;;;;;;8.25;6.149999;;;;;;;2.98;70.53711;95873.78;;;;
2022/09/22 02:14:13;;;;;;;8.25;6.149999;;;;;;;2.98;70.53711;95873.78;;;;
2022/09/22 02:15:59;;;;;;;8.25;6.149999;;;;;;;2.98;70.53711;95873.78;;;;
2022/09/22 02:16:59;;;;;;;8.25;6.149999;;;;;;;2.98;70.53711;95873.78;;;;
2022/09/22 02:18:00;;;;;;;8.25;6.149999;;;;;;;2.98;70.53711;95873.78;;;;
2022/09/22 02:19:04;;;;;;;8.25;6.149999;;;;;;;2.98;70.53711;95873.78;;;;
2022/09/22 02:20:10;;;;;;;8.25;6.149999;;;;;;;2.98;70.53711;95873.78;;;;
2022/09/22 02:21:11;;;;;;;8.7;6.149999;;;;;;;2.81;70.95508;95874.13;;;;
2022/09/22 02:22:13;;;;;;;8.7;6.149999;;;;;;;2.81;70.95508;95874.13;;;;
2022/09/22 02:23:14;;;;;;;8.7;6.149999;;;;;;;2.81;70.95508;95874.13;;;;
2022/09/22 02:24:14;;;;;;;8.7;6.149999;;;;;;;2.81;70.95508;95874.13;;;;
2022/09/22 02:25:32;;;;;;;8.7;6.149999;;;;;;;2.81;70.95508;95874.13;;;;
2022/09/22 02:26:35;;;;;;;8.7;6.149999;;;;;;;2.81;70.95508;95874.13;;;;
2022/09/22 02:27:35;;;;;;;8.7;6.149999;;;;;;;2.81;70.95508;95874.13;;;;
2022/09/22 02:28:37;;;;;;;8.7;6.149999;;;;;;;2.81;70.95508;95874.13;;;;
2022/09/22 02:29:42;;;;;;;8.7;6.149999;;;;;;;2.81;70.95508;95874.13;;;;
2022/09/22 02:30:49;;;;;;;8.7;6.149999;;;;;;;2.81;70.95508;95874.13;;;;
2022/09/22 02:31:53;;;;;;;8.15;5.75;;;;;;;2.77;71.21191;95872.38;;;;
2022/09/22 02:32:55;;;;;;;8.15;5.75;;;;;;;2.77;71.21191;95872.38;;;;
2022/09/22 02:33:57;;;;;;;8.15;5.75;;;;;;;2.77;71.21191;95872.38;;;;
2022/09/22 02:34:59;;;;;;;8.15;5.75;;;;;;;2.77;71.21191;95872.38;;;;
2022/09/22 02:36:00;;;;;;;8.15;5.75;;;;;;;2.77;71.21191;95872.38;;;;
2022/09/22 02:37:11;;;;;;;8.15;5.75;;;;;;;2.77;71.21191;95872.38;;;;
2022/09/22 02:38:21;;;;;;;8.15;5.75;;;;;;;2.77;71.21191;95872.38;;;;
2022/09/22 02:39:28;;;;;;;8.15;5.75;;;;;;;2.77;71.21191;95872.38;;;;
2022/09/22 02:40:34;;;;;;;8.15;5.75;;;;;;;2.77;71.21191;95872.38;;;;
2022/09/22 02:41:43;;;;;;;8.15;5.75;;;;;;;2.77;71.21191;95872.38;;;;
2022/09/22 02:42:56;;;;;;;6.199999;5.349999;;;;;;;2.63;71.41211;95866.3;;;;
2022/09/22 02:44:05;;;;;;;6.199999;5.349999;;;;;;;2.63;71.41211;95866.3;;;;
2022/09/22 02:45:12;;;;;;;6.199999;5.349999;;;;;;;2.63;71.41211;95866.3;;;;
2022/09/22 02:46:17;;;;;;;6.199999;5.349999;;;;;;;2.63;71.41211;95866.3;;;;
2022/09/22 02:47:23;;;;;;;6.199999;5.349999;;;;;;;2.63;71.41211;95866.3;;;;
2022/09/22 02:48:31;;;;;;;6.199999;5.349999;;;;;;;2.63;71.41211;95866.3;;;;
2022/09/22 02:49:37;;;;;;;6.199999;5.349999;;;;;;;2.63;71.41211;95866.3;;;;
2022/09/22 02:50:39;;;;;;;6.199999;5.349999;;;;;;;2.63;71.41211;95866.3;;;;
2022/09/22 02:51:41;;;;;;;6.199999;5.349999;;;;;;;2.63;71.41211;95866.3;;;;
2022/09/22 02:52:42;;;;;;;5.85;4.85;;;;;;;2.51;71.74023;95881.45;;;;
2022/09/22 02:53:43;;;;;;;5.85;4.85;;;;;;;2.51;71.74023;95881.45;;;;
2022/09/22 02:54:44;;;;;;;5.85;4.85;;;;;;;2.51;71.74023;95881.45;;;;
2022/09/22 02:55:45;;;;;;;5.85;4.85;;;;;;;2.51;71.74023;95881.45;;;;
2022/09/22 02:56:46;;;;;;;5.85;4.85;;;;;;;2.51;71.74023;95881.45;;;;
2022/09/22 02:57:46;;;;;;;5.85;4.85;;;;;;;2.51;71.74023;95881.45;;;;
2022/09/22 02:58:47;;;;;;;5.85;4.85;;;;;;;2.51;71.74023;95881.45;;;;
2022/09/22 02:59:47;;;;;;;5.85;4.85;;;;;;;2.51;71.74023;95881.45;;;;
2022/09/22 03:00:48;;;;;;;5.85;4.85;;;;;;;2.51;71.74023;95881.45;;;;
2022/09/22 03:01:49;;;;;;;5.85;4.85;;;;;;;2.51;71.74023;95881.45;;;;
2022/09/22 03:02:49;;;;;;;5.85;4.85;;;;;;;2.51;71.74023;95881.45;;;;
2022/09/22 03:03:50;;;;;;;5.5;5;;;;;;;2.45;71.88965;95886.35;;;;
2022/09/22 03:04:51;;;;;;;5.5;5;;;;;;;2.45;71.88965;95886.35;;;;
2022/09/22 03:05:51;;;;;;;5.5;5;;;;;;;2.45;71.88965;95886.35;;;;
2022/09/22 03:06:51;;;;;;;5.5;5;;;;;;;2.45;71.88965;95886.35;;;;
2022/09/22 03:07:52;;;;;;;5.5;5;;;;;;;2.45;71.88965;95886.35;;;;
2022/09/22 03:08:52;;;;;;;5.5;5;;;;;;;2.45;71.88965;95886.35;;;;
2022/09/22 03:09:53;;;;;;;5.5;5;;;;;;;2.45;71.88965;95886.35;;;;
2022/09/22 03:10:53;;;;;;;5.5;5;;;;;;;2.45;71.88965;95886.35;;;;
2022/09/22 03:11:54;;;;;;;5.5;5;;;;;;;2.45;71.88965;95886.35;;;;
2022/09/22 03:12:56;;;;;;;5.5;5;;;;;;;2.45;71.88965;95886.35;;;;
2022/09/22 03:13:56;;;;;;;5.5;5;;;;;;;2.45;71.88965;95886.35;;;;
2022/09/22 03:14:57;;;;;;;5.799999;5.25;;;;;;;2.43;71.94824;95878.76;;;;
2022/09/22 03:15:57;;;;;;;5.799999;5.25;;;;;;;2.43;71.94824;95878.76;;;;
2022/09/22 03:16:58;;;;;;;5.799999;5.25;;;;;;;2.43;71.94824;95878.76;;;;
2022/09/22 03:17:58;;;;;;;5.799999;5.25;;;;;;;2.43;71.94824;95878.76;;;;
2022/09/22 03:18:59;;;;;;;5.799999;5.25;;;;;;;2.43;71.94824;95878.76;;;;
2022/09/22 03:19:59;;;;;;;5.799999;5.25;;;;;;;2.43;71.94824;95878.76;;;;
2022/09/22 03:21:00;;;;;;;5.799999;5.25;;;;;;;2.43;71.94824;95878.76;;;;
2022/09/22 03:22:01;;;;;;;5.799999;5.25;;;;;;;2.43;71.94824;95878.76;;;;
2022/09/22 03:23:01;;;;;;;5.799999;5.25;;;;;;;2.43;71.94824;95878.76;;;;
2022/09/22 03:24:02;;;;;;;5.799999;5.25;;;;;;;2.43;71.94824;95878.76;;;;
2022/09/22 03:25:02;;;;;;;5.6;4.85;;;;;;;2.33;72.21777;95878.41;;;;
2022/09/22 03:26:04;;;;;;;5.6;4.85;;;;;;;2.33;72.21777;95878.41;;;;
2022/09/22 03:27:04;;;;;;;5.6;4.85;;;;;;;2.33;72.21777;95878.41;;;;
2022/09/22 03:28:05;;;;;;;5.6;4.85;;;;;;;2.33;72.21777;95878.41;;;;
2022/09/22 03:29:05;;;;;;;5.6;4.85;;;;;;;2.33;72.21777;95878.41;;;;
2022/09/22 03:30:06;;;;;;;5.6;4.85;;;;;;;2.33;72.21777;95878.41;;;;
2022/09/22 03:31:08;;;;;;;5.6;4.85;;;;;;;2.33;72.21777;95878.41;;;;
2022/09/22 03:32:08;;;;;;;5.6;4.85;;;;;;;2.33;72.21777;95878.41;;;;
2022/09/22 03:33:09;;;;;;;5.6;4.85;;;;;;;2.33;72.21777;95878.41;;;;
2022/09/22 03:34:09;;;;;;;5.6;4.85;;;;;;;2.33;72.21777;95878.41;;;;
2022/09/22 03:35:10;;;;;;;5.6;4.85;;;;;;;2.33;72.21777;95878.41;;;;
2022/09/22 03:36:12;;;;;;;6.85;4.85;;;;;;;2.18;72.48828;95875.54;;;;
2022/09/22 03:37:13;;;;;;;6.85;4.85;;;;;;;2.18;72.48828;95875.54;;;;
2022/09/22 03:38:13;;;;;;;6.85;4.85;;;;;;;2.18;72.48828;95875.54;;;;
2022/09/22 03:39:14;;;;;;;6.85;4.85;;;;;;;2.18;72.48828;95875.54;;;;
2022/09/22 03:40:14;;;;;;;6.85;4.85;;;;;;;2.18;72.48828;95875.54;;;;
2022/09/22 03:41:15;;;;;;;6.85;4.85;;;;;;;2.18;72.48828;95875.54;;;;
2022/09/22 03:42:15;;;;;;;6.85;4.85;;;;;;;2.18;72.48828;95875.54;;;;
2022/09/22 03:43:16;;;;;;;6.85;4.85;;;;;;;2.18;72.48828;95875.54;;;;
2022/09/22 03:44:16;;;;;;;6.85;4.85;;;;;;;2.18;72.48828;95875.54;;;;
2022/09/22 03:45:17;;;;;;;6.85;4.85;;;;;;;2.18;72.48828;95875.54;;;;
2022/09/22 03:46:17;;;;;;;6.05;5.450001;;;;;;;2.14;72.63867;95876.78;;;;
2022/09/22 03:47:18;;;;;;;6.05;5.450001;;;;;;;2.14;72.63867;95876.78;;;;
2022/09/22 03:48:19;;;;;;;6.05;5.450001;;;;;;;2.14;72.63867;95876.78;;;;
2022/09/22 03:49:19;;;;;;;6.05;5.450001;;;;;;;2.14;72.63867;95876.78;;;;
2022/09/22 03:50:20;;;;;;;6.05;5.450001;;;;;;;2.14;72.63867;95876.78;;;;
2022/09/22 03:51:20;;;;;;;6.05;5.450001;;;;;;;2.14;72.63867;95876.78;;;;
2022/09/22 03:52:21;;;;;;;6.05;5.450001;;;;;;;2.14;72.63867;95876.78;;;;
2022/09/22 03:53:22;;;;;;;6.05;5.450001;;;;;;;2.14;72.63867;95876.78;;;;
2022/09/22 03:54:23;;;;;;;6.05;5.450001;;;;;;;2.14;72.63867;95876.78;;;;
2022/09/22 03:55:24;;;;;;;6.05;5.450001;;;;;;;2.14;72.63867;95876.78;;;;
2022/09/22 03:56:24;;;;;;;6.05;5.450001;;;;;;;2.14;72.63867;95876.78;;;;
2022/09/22 03:57:26;;;;;;;5.8;4.95;;;;;;;2.09;72.8418;95870.79;;;;
2022/09/22 03:58:26;;;;;;;5.8;4.95;;;;;;;2.09;72.8418;95870.79;;;;
2022/09/22 03:59:26;;;;;;;5.8;4.95;;;;;;;2.09;72.8418;95870.79;;;;
2022/09/22 04:00:27;;;;;;;5.8;4.95;;;;;;;2.09;72.8418;95870.79;;;;
2022/09/22 04:01:28;;;;;;;5.8;4.95;;;;;;;2.09;72.8418;95870.79;;;;
2022/09/22 04:02:29;;;;;;;5.8;4.95;;;;;;;2.09;72.8418;95870.79;;;;
2022/09/22 04:03:29;;;;;;;5.8;4.95;;;;;;;2.09;72.8418;95870.79;;;;
2022/09/22 04:04:31;;;;;;;5.8;4.95;;;;;;;2.09;72.8418;95870.79;;;;
2022/09/22 04:05:31;;;;;;;5.8;4.95;;;;;;;2.09;72.8418;95870.79;;;;
2022/09/22 04:06:32;;;;;;;5.8;4.95;;;;;;;2.09;72.8418;95870.79;;;;
2022/09/22 04:07:34;;;;;;;5.8;4.95;;;;;;;2.09;72.8418;95870.79;;;;
2022/09/22 04:08:34;;;;;;;6.349999;5.050001;;;;;;;2.02;72.9873;95869.73;;;;
2022/09/22 04:09:35;;;;;;;6.349999;5.050001;;;;;;;2.02;72.9873;95869.73;;;;
2022/09/22 04:10:35;;;;;;;6.349999;5.050001;;;;;;;2.02;72.9873;95869.73;;;;
2022/09/22 04:11:36;;;;;;;6.349999;5.050001;;;;;;;2.02;72.9873;95869.73;;;;
2022/09/22 04:12:37;;;;;;;6.349999;5.050001;;;;;;;2.02;72.9873;95869.73;;;;
2022/09/22 04:13:37;;;;;;;6.349999;5.050001;;;;;;;2.02;72.9873;95869.73;;;;
2022/09/22 04:14:38;;;;;;;6.349999;5.050001;;;;;;;2.02;72.9873;95869.73;;;;
2022/09/22 04:15:38;;;;;;;6.349999;5.050001;;;;;;;2.02;72.9873;95869.73;;;;
2022/09/22 04:16:41;;;;;;;6.349999;5.050001;;;;;;;2.02;72.9873;95869.73;;;;
2022/09/22 04:17:42;;;;;;;6.349999;5.050001;;;;;;;2.02;72.9873;95869.73;;;;
2022/09/22 04:18:43;;;;;;;6.15;5.550002;;;;;;;1.96;73.11426;95872.03;;;;
2022/09/22 04:19:43;;;;;;;6.15;5.550002;;;;;;;1.96;73.11426;95872.03;;;;
2022/09/22 04:20:44;;;;;;;6.15;5.550002;;;;;;;1.96;73.11426;95872.03;;;;
2022/09/22 04:21:44;;;;;;;6.15;5.550002;;;;;;;1.96;73.11426;95872.03;;;;
2022/09/22 04:22:45;;;;;;;6.15;5.550002;;;;;;;1.96;73.11426;95872.03;;;;
2022/09/22 04:23:45;;;;;;;6.15;5.550002;;;;;;;1.96;73.11426;95872.03;;;;
2022/09/22 04:24:46;;;;;;;6.15;5.550002;;;;;;;1.96;73.11426;95872.03;;;;
2022/09/22 04:25:46;;;;;;;6.15;5.550002;;;;;;;1.96;73.11426;95872.03;;;;
2022/09/22 04:26:47;;;;;;;6.15;5.550002;;;;;;;1.96;73.11426;95872.03;;;;
2022/09/22 04:27:47;;;;;;;6.15;5.550002;;;;;;;1.96;73.11426;95872.03;;;;
2022/09/22 04:28:48;;;;;;;6.15;5.550002;;;;;;;1.96;73.11426;95872.03;;;;
2022/09/22 04:29:48;;;;;;;6.849999;5.500001;;;;;;;1.9;73.29297;95862.17;;;;
2022/09/22 04:30:49;;;;;;;6.849999;5.500001;;;;;;;1.9;73.29297;95862.17;;;;
2022/09/22 04:31:49;;;;;;;6.849999;5.500001;;;;;;;1.9;73.29297;95862.17;;;;
2022/09/22 04:32:50;;;;;;;6.849999;5.500001;;;;;;;1.9;73.29297;95862.17;;;;
2022/09/22 04:33:51;;;;;;;6.849999;5.500001;;;;;;;1.9;73.29297;95862.17;;;;
2022/09/22 04:34:51;;;;;;;6.849999;5.500001;;;;;;;1.9;73.29297;95862.17;;;;
2022/09/22 04:35:52;;;;;;;6.849999;5.500001;;;;;;;1.9;73.29297;95862.17;;;;
2022/09/22 04:36:52;;;;;;;6.849999;5.500001;;;;;;;1.9;73.29297;95862.17;;;;
2022/09/22 04:37:53;;;;;;;6.849999;5.500001;;;;;;;1.9;73.29297;95862.17;;;;
2022/09/22 04:38:54;;;;;;;6.849999;5.500001;;;;;;;1.9;73.29297;95862.17;;;;
2022/09/22 04:39:54;;;;;;;6.650001;5.950001;;;;;;;1.8;73.53027;95863.53;;;;
2022/09/22 04:40:55;;;;;;;6.650001;5.950001;;;;;;;1.8;73.53027;95863.53;;;;
2022/09/22 04:41:56;;;;;;;6.650001;5.950001;;;;;;;1.8;73.53027;95863.53;;;;
2022/09/22 04:42:56;;;;;;;6.650001;5.950001;;;;;;;1.8;73.53027;95863.53;;;;
2022/09/22 04:43:57;;;;;;;6.650001;5.950001;;;;;;;1.8;73.53027;95863.53;;;;
2022/09/22 04:45:00;;;;;;;6.650001;5.950001;;;;;;;1.8;73.53027;95863.53;;;;
2022/09/22 04:46:01;;;;;;;6.650001;5.950001;;;;;;;1.8;73.53027;95863.53;;;;
2022/09/22 04:47:02;;;;;;;6.650001;5.950001;;;;;;;1.8;73.53027;95863.53;;;;
2022/09/22 04:48:03;;;;;;;6.650001;5.950001;;;;;;;1.8;73.53027;95863.53;;;;
2022/09/22 04:49:04;;;;;;;6.650001;5.950001;;;;;;;1.8;73.53027;95863.53;;;;
2022/09/22 04:50:04;;;;;;;6.650001;5.950001;;;;;;;1.8;73.53027;95863.53;;;;
2022/09/22 04:51:06;;;;;;;7.400001;5.85;;;;;;;1.8;73.77246;95872.64;;;;
2022/09/22 04:52:06;;;;;;;7.400001;5.85;;;;;;;1.8;73.77246;95872.64;;;;
2022/09/22 04:53:08;;;;;;;7.400001;5.85;;;;;;;1.8;73.77246;95872.64;;;;
2022/09/22 04:54:08;;;;;;;7.400001;5.85;;;;;;;1.8;73.77246;95872.64;;;;
2022/09/22 04:55:10;;;;;;;7.400001;5.85;;;;;;;1.8;73.77246;95872.64;;;;
2022/09/22 04:56:10;;;;;;;7.400001;5.85;;;;;;;1.8;73.77246;95872.64;;;;
2022/09/22 04:57:11;;;;;;;7.400001;5.85;;;;;;;1.8;73.77246;95872.64;;;;
2022/09/22 04:58:12;;;;;;;7.400001;5.85;;;;;;;1.8;73.77246;95872.64;;;;
2022/09/22 04:59:13;;;;;;;7.400001;5.85;;;;;;;1.8;73.77246;95872.64;;;;
2022/09/22 05:00:13;;;;;;;7.400001;5.85;;;;;;;1.8;73.77246;95872.64;;;;
2022/09/22 05:01:15;;;;;;;6.5;5.900001;;;;;;;1.78;73.88574;95885.91;;;;
2022/09/22 05:02:15;;;;;;;6.5;5.900001;;;;;;;1.78;73.88574;95885.91;;;;
2022/09/22 05:03:16;;;;;;;6.5;5.900001;;;;;;;1.78;73.88574;95885.91;;;;
2022/09/22 05:04:17;;;;;;;6.5;5.900001;;;;;;;1.78;73.88574;95885.91;;;;
2022/09/22 05:05:17;;;;;;;6.5;5.900001;;;;;;;1.78;73.88574;95885.91;;;;
2022/09/22 05:06:18;;;;;;;6.5;5.900001;;;;;;;1.78;73.88574;95885.91;;;;
2022/09/22 05:07:18;;;;;;;6.5;5.900001;;;;;;;1.78;73.88574;95885.91;;;;
2022/09/22 05:08:19;;;;;;;6.5;5.900001;;;;;;;1.78;73.88574;95885.91;;;;
2022/09/22 05:09:20;;;;;;;6.5;5.900001;;;;;;;1.78;73.88574;95885.91;;;;
2022/09/22 05:10:20;;;;;;;6.5;5.900001;;;;;;;1.78;73.88574;95885.91;;;;
2022/09/22 05:11:23;;;;;;;6.5;5.900001;;;;;;;1.78;73.88574;95885.91;;;;
2022/09/22 05:12:23;;;;;;;8.450001;6.15;;;;;;;1.71;74.11719;95895.67;;;;
2022/09/22 05:13:24;;;;;;;8.450001;6.15;;;;;;;1.71;74.11719;95895.67;;;;
2022/09/22 05:14:24;;;;;;;8.450001;6.15;;;;;;;1.71;74.11719;95895.67;;;;
2022/09/22 05:15:25;;;;;;;8.450001;6.15;;;;;;;1.71;74.11719;95895.67;;;;
2022/09/22 05:16:26;;;;;;;8.450001;6.15;;;;;;;1.71;74.11719;95895.67;;;;
2022/09/22 05:17:27;;;;;;;8.450001;6.15;;;;;;;1.71;74.11719;95895.67;;;;
2022/09/22 05:18:27;;;;;;;8.450001;6.15;;;;;;;1.71;74.11719;95895.67;;;;
2022/09/22 05:19:28;;;;;;;8.450001;6.15;;;;;;;1.71;74.11719;95895.67;;;;
2022/09/22 05:20:28;;;;;;;8.450001;6.15;;;;;;;1.71;74.11719;95895.67;;;;
2022/09/22 05:21:29;;;;;;;8.450001;6.15;;;;;;;1.71;74.11719;95895.67;;;;
2022/09/22 05:22:29;;;;;;;7.199999;5.299999;;;;;;;1.69;74.32227;95907.17;;;;
2022/09/22 05:23:31;;;;;;;7.199999;5.299999;;;;;;;1.69;74.32227;95907.17;;;;
2022/09/22 05:24:31;;;;;;;7.199999;5.299999;;;;;;;1.69;74.32227;95907.17;;;;
2022/09/22 05:25:32;;;;;;;7.199999;5.299999;;;;;;;1.69;74.32227;95907.17;;;;
2022/09/22 05:26:33;;;;;;;7.199999;5.299999;;;;;;;1.69;74.32227;95907.17;;;;
2022/09/22 05:27:33;;;;;;;7.199999;5.299999;;;;;;;1.69;74.32227;95907.17;;;;
2022/09/22 05:28:34;;;;;;;7.199999;5.299999;;;;;;;1.69;74.32227;95907.17;;;;
2022/09/22 05:29:34;;;;;;;7.199999;5.299999;;;;;;;1.69;74.32227;95907.17;;;;
2022/09/22 05:30:35;;;;;;;7.199999;5.299999;;;;;;;1.69;74.32227;95907.17;;;;
2022/09/22 05:31:35;;;;;;;7.199999;5.299999;;;;;;;1.69;74.32227;95907.17;;;;
2022/09/22 05:32:36;;;;;;;7.199999;5.299999;;;;;;;1.69;74.32227;95907.17;;;;
2022/09/22 05:33:36;;;;;;;8.050001;6.45;;;;;;;1.72;74.48535;95901.29;;;;
2022/09/22 05:34:37;;;;;;;8.050001;6.45;;;;;;;1.72;74.48535;95901.29;;;;
2022/09/22 05:35:37;;;;;;;8.050001;6.45;;;;;;;1.72;74.48535;95901.29;;;;
2022/09/22 05:36:38;;;;;;;8.050001;6.45;;;;;;;1.72;74.48535;95901.29;;;;
2022/09/22 05:37:38;;;;;;;8.050001;6.45;;;;;;;1.72;74.48535;95901.29;;;;
2022/09/22 05:38:42;;;;;;;8.050001;6.45;;;;;;;1.72;74.48535;95901.29;;;;
2022/09/22 05:39:42;;;;;;;8.050001;6.45;;;;;;;1.72;74.48535;95901.29;;;;
2022/09/22 05:40:43;;;;;;;8.050001;6.45;;;;;;;1.72;74.48535;95901.29;;;;
2022/09/22 05:41:44;;;;;;;8.050001;6.45;;;;;;;1.72;74.48535;95901.29;;;;
2022/09/22 05:42:44;;;;;;;8.050001;6.45;;;;;;;1.72;74.48535;95901.29;;;;
2022/09/22 05:43:46;;;;;;;6.65;5.950001;;;;;;;1.8;74.57422;95905.72;;;;